createdAt,value
2019-04-25T00:01:54.499Z,54.50
2019-04-25T00:06:54.299Z,54.40
2019-04-25T00:11:54.318Z,54.30
2019-04-25T00:16:54.731Z,54.20
2019-04-25T00:22:05.503Z,54.40
2019-04-25T00:27:05.307Z,55.40
2019-04-25T00:32:05.167Z,57.00
2019-04-25T00:37:04.819Z,57.80
2019-04-25T00:42:05.231Z,58.40
2019-04-25T00:47:05.052Z,58.60
2019-04-25T00:52:04.759Z,58.70
2019-04-25T00:57:04.650Z,57.90
2019-04-25T01:02:22.306Z,58.90
2019-04-25T01:07:22.530Z,59.20
2019-04-25T01:12:22.325Z,59.50
2019-04-25T01:17:22.907Z,59.50
2019-04-25T01:22:23.243Z,59.40
2019-04-25T01:27:23.499Z,59.40
2019-04-25T01:32:34.966Z,59.40
2019-04-25T01:37:44.938Z,59.60
2019-04-25T01:43:06.883Z,60.40
2019-04-25T01:48:07.866Z,61.60
2019-04-25T01:53:07.919Z,62.30
2019-04-25T01:58:08.599Z,62.90
2019-04-25T02:03:09.106Z,63.30
2019-04-25T02:08:09.089Z,64.10
2019-04-25T02:13:11.427Z,63.50
2019-04-25T02:18:11.154Z,63.60
2019-04-25T02:23:10.878Z,63.70
2019-04-25T02:28:10.890Z,63.60
2019-04-25T02:33:10.535Z,63.40
2019-04-25T02:38:10.492Z,63.30
2019-04-25T02:43:10.102Z,62.90
2019-04-25T02:48:34.170Z,62.80
2019-04-25T02:53:37.400Z,62.60
2019-04-25T02:58:36.751Z,62.30
2019-04-25T03:03:36.431Z,62.10
2019-04-25T03:08:36.571Z,62.00
2019-04-25T03:13:36.448Z,62.00
2019-04-25T03:18:41.442Z,61.50
2019-04-25T03:23:46.202Z,61.70
2019-04-25T03:28:44.838Z,61.70
2019-04-25T03:33:45.959Z,61.40
2019-04-25T03:38:46.015Z,60.90
2019-04-25T03:43:46.548Z,60.80
2019-04-25T03:48:46.390Z,60.50
2019-04-25T03:53:46.114Z,60.60
2019-04-25T03:58:46.018Z,60.50
2019-04-25T04:03:45.673Z,60.40
2019-04-25T04:08:45.325Z,60.30
2019-04-25T04:13:45.285Z,60.50
2019-04-25T04:18:46.535Z,60.60
2019-04-25T04:24:11.815Z,61.00
2019-04-25T04:29:12.430Z,61.20
2019-04-25T04:34:14.696Z,60.90
2019-04-25T04:39:16.823Z,61.40
2019-04-25T04:44:16.502Z,61.40
2019-04-25T04:49:16.431Z,61.60
2019-04-25T04:54:16.981Z,61.70
2019-04-25T04:59:16.774Z,62.30
2019-04-25T05:04:25.126Z,62.30
2019-04-25T05:09:28.059Z,63.50
2019-04-25T05:14:28.058Z,62.90
2019-04-25T05:19:27.747Z,63.10
2019-04-25T05:24:27.406Z,63.40
2019-04-25T05:29:27.422Z,63.40
2019-04-25T05:34:27.054Z,63.50
2019-04-25T05:39:26.698Z,63.90
2019-04-25T05:44:27.399Z,63.70
2019-04-25T05:49:27.559Z,63.90
2019-04-25T05:54:27.339Z,63.90
2019-04-25T05:59:27.980Z,63.70
2019-04-25T06:04:27.694Z,63.60
2019-04-25T06:09:55.390Z,64.10
2019-04-25T06:14:56.111Z,63.50
2019-04-25T06:19:55.965Z,63.20
2019-04-25T06:25:12.326Z,63.50
2019-04-25T06:30:15.878Z,63.30
2019-04-25T06:35:15.622Z,63.00
2019-04-25T06:40:17.469Z,62.90
2019-04-25T06:45:44.043Z,62.80
2019-04-25T06:50:43.911Z,62.90
2019-04-25T06:55:44.907Z,62.60
2019-04-25T07:00:57.147Z,62.20
2019-04-25T07:05:46.287Z,61.80
2019-04-25T07:10:45.962Z,61.30
2019-04-25T07:15:45.679Z,61.50
2019-04-25T07:20:45.473Z,61.30
2019-04-25T07:25:53.707Z,60.50
2019-04-25T07:31:11.100Z,60.40
2019-04-25T07:36:10.877Z,60.30
2019-04-25T07:41:10.630Z,59.10
2019-04-25T07:46:10.755Z,58.90
2019-04-25T07:51:10.443Z,58.50
2019-04-25T07:56:10.199Z,58.50
2019-04-25T08:01:11.542Z,57.50
2019-04-25T08:06:11.368Z,57.90
2019-04-25T08:11:11.379Z,57.30
2019-04-25T08:16:14.457Z,56.80
2019-04-25T08:21:15.346Z,56.50
2019-04-25T08:26:15.247Z,56.00
2019-04-25T08:31:15.019Z,56.00
2019-04-25T08:36:14.970Z,54.40
2019-04-25T08:41:14.590Z,54.40
2019-04-25T08:46:14.250Z,53.50
2019-04-25T08:51:15.970Z,53.60
2019-04-25T08:56:20.212Z,51.90
2019-04-25T09:01:31.542Z,53.10
2019-04-25T09:06:33.314Z,52.80
2019-04-25T09:11:36.633Z,52.20
2019-04-25T09:16:36.583Z,51.80
2019-04-25T09:21:37.875Z,51.40
2019-04-25T09:26:38.335Z,51.90
2019-04-25T09:31:39.218Z,51.20
2019-04-25T09:36:39.954Z,51.30
2019-04-25T09:41:39.919Z,50.70
2019-04-25T09:46:44.123Z,50.70
2019-04-25T09:51:55.659Z,49.90
2019-04-25T09:56:59.139Z,49.20
2019-04-25T10:01:58.854Z,48.70
2019-04-25T10:06:58.856Z,48.70
2019-04-25T10:11:58.593Z,48.40
2019-04-25T10:16:58.295Z,47.60
2019-04-25T10:21:58.119Z,48.40
2019-04-25T10:26:59.686Z,47.80
2019-04-25T10:31:59.343Z,46.80
2019-04-25T10:36:58.994Z,46.90
2019-04-25T10:41:58.727Z,45.70
2019-04-25T10:46:58.469Z,45.90
2019-04-25T10:51:58.107Z,45.30
2019-04-25T10:56:57.865Z,45.10
2019-04-25T11:01:57.567Z,45.20
2019-04-25T11:06:58.891Z,44.40
2019-04-25T11:11:58.678Z,43.50
2019-04-25T11:16:58.407Z,42.90
2019-04-25T11:21:58.178Z,43.20
2019-04-25T11:26:57.971Z,43.00
2019-04-25T11:31:58.119Z,41.90
2019-04-25T11:36:58.027Z,41.00
2019-04-25T11:41:58.178Z,41.00
2019-04-25T11:46:58.792Z,40.60
2019-04-25T11:51:58.666Z,40.90
2019-04-25T11:56:58.291Z,40.50
2019-04-25T12:01:59.039Z,40.20
2019-04-25T12:06:58.702Z,40.00
2019-04-25T12:11:58.342Z,40.10
2019-04-25T12:16:59.127Z,40.00
2019-04-25T12:21:58.842Z,39.60
2019-04-25T12:26:58.814Z,38.50
2019-04-25T12:31:58.691Z,38.00
2019-04-25T12:36:58.518Z,38.90
2019-04-25T12:41:58.501Z,37.50
2019-04-25T12:47:00.610Z,38.80
2019-04-25T12:52:00.251Z,38.50
2019-04-25T12:56:59.943Z,36.90
2019-04-25T13:02:00.154Z,37.20
2019-04-25T13:07:00.334Z,36.90
2019-04-25T13:12:00.359Z,36.70
2019-04-25T13:17:00.407Z,36.30
2019-04-25T13:22:00.677Z,35.50
2019-04-25T13:27:06.189Z,36.80
2019-04-25T13:32:32.976Z,36.40
2019-04-25T13:37:34.164Z,36.40
2019-04-25T13:42:34.062Z,34.90
2019-04-25T13:47:34.191Z,35.60
2019-04-25T13:52:35.799Z,37.20
2019-04-25T13:57:35.287Z,36.40
2019-04-25T14:02:35.066Z,36.00
2019-04-25T14:07:34.919Z,36.90
2019-04-25T14:12:34.542Z,35.90
2019-04-25T14:17:44.867Z,35.70
2019-04-25T14:22:45.408Z,34.80
2019-04-25T14:27:45.213Z,34.00
2019-04-25T14:32:44.931Z,34.80
2019-04-25T14:37:44.658Z,35.20
2019-04-25T14:42:44.374Z,35.90
2019-04-25T14:47:44.120Z,35.50
2019-04-25T14:52:43.814Z,36.60
2019-04-25T14:57:43.493Z,35.80
2019-04-25T15:02:43.227Z,36.30
2019-04-25T15:07:43.038Z,35.00
2019-04-25T15:12:42.887Z,33.00
2019-04-25T15:17:46.290Z,34.60
2019-04-25T15:22:43.874Z,36.30
2019-04-25T15:27:43.822Z,36.40
2019-04-25T15:32:43.564Z,37.20
2019-04-25T15:37:51.714Z,37.20
2019-04-25T15:43:19.868Z,36.40
2019-04-25T15:48:19.621Z,36.60
2019-04-25T15:53:19.291Z,37.40
2019-04-25T15:58:18.940Z,34.70
2019-04-25T16:03:19.035Z,36.20
2019-04-25T16:08:18.759Z,36.30
2019-04-25T16:13:18.704Z,35.20
2019-04-25T16:18:18.406Z,36.60
2019-04-25T16:23:18.482Z,35.70
2019-04-25T16:28:18.147Z,36.70
2019-04-25T16:33:17.838Z,36.30
2019-04-25T16:38:17.634Z,36.10
2019-04-25T16:43:21.389Z,36.30
2019-04-25T16:48:22.092Z,36.40
2019-04-25T16:53:23.442Z,35.80
2019-04-25T16:58:23.404Z,37.60
2019-04-25T17:03:25.579Z,37.10
2019-04-25T17:08:26.067Z,37.10
2019-04-25T17:13:29.690Z,37.00
2019-04-25T17:18:38.261Z,38.20
2019-04-25T17:23:39.659Z,38.30
2019-04-25T17:28:41.351Z,38.70
2019-04-25T17:33:48.040Z,37.70
2019-04-25T17:38:56.874Z,38.50
2019-04-25T17:43:56.684Z,38.70
2019-04-25T17:48:56.615Z,39.10
2019-04-25T17:53:56.267Z,38.70
2019-04-25T17:58:55.927Z,38.50
2019-04-25T18:03:55.962Z,39.20
2019-04-25T18:08:55.710Z,39.10
2019-04-25T18:13:55.650Z,39.50
2019-04-25T18:19:20.527Z,39.60
2019-04-25T18:24:39.048Z,40.00
2019-04-25T18:29:39.459Z,40.20
2019-04-25T18:34:57.624Z,40.40
2019-04-25T18:40:31.712Z,40.60
2019-04-25T18:45:32.940Z,40.50
2019-04-25T18:50:37.313Z,40.90
2019-04-25T18:55:47.840Z,41.20
2019-04-25T19:00:57.602Z,41.40
2019-04-25T19:06:03.250Z,41.40
2019-04-25T19:11:03.705Z,42.10
2019-04-25T19:16:04.754Z,41.70
2019-04-25T19:21:06.004Z,41.80
2019-04-25T19:26:06.006Z,42.60
2019-04-25T19:31:05.738Z,42.20
2019-04-25T19:36:05.682Z,42.40
2019-04-25T19:41:14.202Z,42.10
2019-04-25T19:46:14.910Z,42.30
2019-04-25T19:51:15.638Z,42.40
2019-04-25T19:56:15.566Z,42.30
2019-04-25T20:01:15.515Z,42.20
2019-04-25T20:06:34.374Z,43.00
2019-04-25T20:11:38.511Z,42.80
2019-04-25T20:16:44.900Z,42.80
2019-04-25T20:21:45.847Z,42.70
2019-04-25T20:26:46.336Z,42.70
2019-04-25T20:31:46.515Z,43.40
2019-04-25T20:36:47.395Z,43.30
2019-04-25T20:41:48.105Z,43.50
2019-04-25T20:46:48.496Z,43.30
2019-04-25T20:51:48.477Z,43.80
2019-04-25T20:56:49.157Z,43.50
2019-04-25T21:01:49.684Z,43.80
2019-04-25T21:06:49.482Z,44.30
2019-04-25T21:11:49.895Z,44.00
2019-04-25T21:17:10.972Z,44.30
2019-04-25T21:22:10.708Z,44.10
2019-04-25T21:27:10.346Z,44.10
2019-04-25T21:32:10.133Z,44.40
2019-04-25T21:37:09.780Z,44.70
2019-04-25T21:42:22.822Z,44.30
2019-04-25T21:47:22.778Z,44.40
2019-04-25T22:11:33.414Z,45.60
2019-04-25T22:16:33.502Z,45.80
2019-04-25T22:21:38.488Z,46.10
2019-04-25T22:26:36.225Z,45.30
2019-04-25T22:31:43.873Z,45.60
2019-04-25T22:36:44.121Z,45.20
2019-04-25T22:41:46.941Z,44.50
2019-04-25T22:46:47.210Z,44.80
2019-04-25T22:51:46.867Z,44.90
2019-04-25T22:56:47.227Z,44.30
2019-04-25T23:02:15.678Z,44.80
2019-04-25T23:07:17.350Z,44.60
2019-04-25T23:12:17.454Z,44.40
2019-04-25T23:17:17.335Z,44.50
2019-04-25T23:22:17.698Z,45.00
2019-04-25T23:27:40.031Z,44.60
2019-04-25T23:32:39.659Z,44.60
2019-04-25T23:37:39.319Z,44.60
2019-04-25T23:42:38.986Z,44.60
2019-04-25T23:47:38.936Z,44.90
2019-04-25T23:52:38.969Z,44.30
2019-04-25T23:57:38.966Z,44.30
